sensor_id;sensor_type;location;lat;lon;timestamp;P1;durP1;ratioP1;P2;durP2;ratioP2
2019;SDS011;1014;51.960;8.542;2023-03-01T00:01:23;26.15;;;24.25;;
2019;SDS011;1014;51.960;8.542;2023-03-01T00:03:51;27.25;;;25.52;;
2019;SDS011;1014;51.960;8.542;2023-03-01T00:06:18;27.20;;;25.30;;
2019;SDS011;1014;51.960;8.542;2023-03-01T00:08:46;27.05;;;25.25;;
2019;SDS011;1014;51.960;8.542;2023-03-01T00:11:13;25.77;;;23.95;;
2019;SDS011;1014;51.960;8.542;2023-03-01T00:13:43;27.25;;;25.15;;
2019;SDS011;1014;51.960;8.542;2023-03-01T00:16:11;26.50;;;24.55;;
2019;SDS011;1014;51.960;8.542;2023-03-01T00:18:39;26.17;;;24.20;;
2019;SDS011;1014;51.960;8.542;2023-03-01T00:21:06;25.08;;;23.48;;
2019;SDS011;1014;51.960;8.542;2023-03-01T00:23:34;25.58;;;23.85;;
2019;SDS011;1014;51.960;8.542;2023-03-01T00:26:01;25.60;;;23.90;;
2019;SDS011;1014;51.960;8.542;2023-03-01T00:28:28;24.88;;;23.38;;
2019;SDS011;1014;51.960;8.542;2023-03-01T00:30:57;25.63;;;24.13;;
2019;SDS011;1014;51.960;8.542;2023-03-01T00:33:28;25.45;;;23.58;;
2019;SDS011;1014;51.960;8.542;2023-03-01T00:35:57;25.73;;;23.92;;
2019;SDS011;1014;51.960;8.542;2023-03-01T00:38:24;25.13;;;23.40;;
2019;SDS011;1014;51.960;8.542;2023-03-01T00:40:51;25.42;;;23.83;;
2019;SDS011;1014;51.960;8.542;2023-03-01T00:43:18;25.20;;;23.63;;
2019;SDS011;1014;51.960;8.542;2023-03-01T00:45:45;25.52;;;23.80;;
2019;SDS011;1014;51.960;8.542;2023-03-01T00:48:14;24.98;;;23.38;;
2019;SDS011;1014;51.960;8.542;2023-03-01T00:50:41;25.17;;;23.58;;
2019;SDS011;1014;51.960;8.542;2023-03-01T00:53:08;26.88;;;25.17;;
2019;SDS011;1014;51.960;8.542;2023-03-01T00:55:35;26.27;;;24.55;;
2019;SDS011;1014;51.960;8.542;2023-03-01T00:58:02;26.88;;;25.20;;
2019;SDS011;1014;51.960;8.542;2023-03-01T01:00:29;25.40;;;23.80;;
2019;SDS011;1014;51.960;8.542;2023-03-01T01:02:56;25.52;;;23.70;;
2019;SDS011;1014;51.960;8.542;2023-03-01T01:08:35;26.00;;;24.40;;
2019;SDS011;1014;51.960;8.542;2023-03-01T01:11:02;24.90;;;23.38;;
2019;SDS011;1014;51.960;8.542;2023-03-01T01:13:29;26.00;;;24.20;;
2019;SDS011;1014;51.960;8.542;2023-03-01T01:16:00;25.00;;;23.60;;
2019;SDS011;1014;51.960;8.542;2023-03-01T01:18:27;25.75;;;24.05;;
2019;SDS011;1014;51.960;8.542;2023-03-01T01:20:54;26.30;;;24.63;;
2019;SDS011;1014;51.960;8.542;2023-03-01T01:23:21;27.35;;;25.42;;
2019;SDS011;1014;51.960;8.542;2023-03-01T01:25:50;25.52;;;23.92;;
2019;SDS011;1014;51.960;8.542;2023-03-01T01:28:17;25.83;;;24.23;;
2019;SDS011;1014;51.960;8.542;2023-03-01T01:30:44;25.90;;;24.00;;
2019;SDS011;1014;51.960;8.542;2023-03-01T01:33:11;25.52;;;23.90;;
2019;SDS011;1014;51.960;8.542;2023-03-01T01:35:38;24.20;;;22.70;;
2019;SDS011;1014;51.960;8.542;2023-03-01T01:38:05;25.58;;;23.70;;
2019;SDS011;1014;51.960;8.542;2023-03-01T01:40:32;25.75;;;24.15;;
2019;SDS011;1014;51.960;8.542;2023-03-01T01:43:00;26.02;;;24.33;;
2019;SDS011;1014;51.960;8.542;2023-03-01T01:45:29;26.20;;;24.50;;
2019;SDS011;1014;51.960;8.542;2023-03-01T01:47:57;25.67;;;24.13;;
2019;SDS011;1014;51.960;8.542;2023-03-01T01:50:25;25.48;;;23.88;;
2019;SDS011;1014;51.960;8.542;2023-03-01T01:53:02;25.98;;;24.27;;
2019;SDS011;1014;51.960;8.542;2023-03-01T01:55:29;25.02;;;23.42;;
2019;SDS011;1014;51.960;8.542;2023-03-01T01:57:57;25.10;;;23.50;;
2019;SDS011;1014;51.960;8.542;2023-03-01T02:00:27;26.25;;;24.50;;
2019;SDS011;1014;51.960;8.542;2023-03-01T02:02:55;26.40;;;24.58;;
2019;SDS011;1014;51.960;8.542;2023-03-01T02:05:25;25.40;;;23.67;;
2019;SDS011;1014;51.960;8.542;2023-03-01T02:07:53;26.85;;;24.83;;
2019;SDS011;1014;51.960;8.542;2023-03-01T02:10:20;25.52;;;23.83;;
2019;SDS011;1014;51.960;8.542;2023-03-01T02:12:48;26.02;;;24.42;;
2019;SDS011;1014;51.960;8.542;2023-03-01T02:15:15;25.98;;;24.23;;
2019;SDS011;1014;51.960;8.542;2023-03-01T02:17:43;26.88;;;24.98;;
2019;SDS011;1014;51.960;8.542;2023-03-01T02:20:12;24.98;;;23.38;;
2019;SDS011;1014;51.960;8.542;2023-03-01T02:22:42;26.10;;;24.40;;
2019;SDS011;1014;51.960;8.542;2023-03-01T02:25:12;25.90;;;24.30;;
2019;SDS011;1014;51.960;8.542;2023-03-01T02:27:46;26.30;;;24.60;;
2019;SDS011;1014;51.960;8.542;2023-03-01T02:30:16;26.83;;;24.88;;
2019;SDS011;1014;51.960;8.542;2023-03-01T02:32:44;26.08;;;24.50;;
2019;SDS011;1014;51.960;8.542;2023-03-01T02:35:10;25.75;;;23.85;;
2019;SDS011;1014;51.960;8.542;2023-03-01T02:37:39;25.27;;;23.77;;
2019;SDS011;1014;51.960;8.542;2023-03-01T02:40:08;25.63;;;23.95;;
2019;SDS011;1014;51.960;8.542;2023-03-01T02:42:36;26.55;;;24.55;;
2019;SDS011;1014;51.960;8.542;2023-03-01T02:45:09;26.50;;;24.73;;
2019;SDS011;1014;51.960;8.542;2023-03-01T02:47:37;26.05;;;24.30;;
2019;SDS011;1014;51.960;8.542;2023-03-01T02:50:09;26.00;;;24.08;;
2019;SDS011;1014;51.960;8.542;2023-03-01T02:52:40;26.35;;;24.55;;
2019;SDS011;1014;51.960;8.542;2023-03-01T02:55:10;26.10;;;24.40;;
2019;SDS011;1014;51.960;8.542;2023-03-01T02:57:38;27.42;;;25.63;;
2019;SDS011;1014;51.960;8.542;2023-03-01T03:00:08;25.52;;;23.92;;
2019;SDS011;1014;51.960;8.542;2023-03-01T03:02:36;26.75;;;25.10;;
2019;SDS011;1014;51.960;8.542;2023-03-01T03:05:05;27.08;;;25.38;;
2019;SDS011;1014;51.960;8.542;2023-03-01T03:07:33;26.30;;;24.55;;
2019;SDS011;1014;51.960;8.542;2023-03-01T03:10:01;26.83;;;25.10;;
2019;SDS011;1014;51.960;8.542;2023-03-01T03:12:28;25.85;;;24.35;;
2019;SDS011;1014;51.960;8.542;2023-03-01T03:14:55;26.92;;;25.13;;
2019;SDS011;1014;51.960;8.542;2023-03-01T03:17:22;25.92;;;24.33;;
2019;SDS011;1014;51.960;8.542;2023-03-01T03:19:49;26.48;;;24.67;;
2019;SDS011;1014;51.960;8.542;2023-03-01T03:22:17;26.15;;;24.35;;
2019;SDS011;1014;51.960;8.542;2023-03-01T03:24:44;26.55;;;24.73;;
2019;SDS011;1014;51.960;8.542;2023-03-01T03:27:11;26.60;;;24.90;;
2019;SDS011;1014;51.960;8.542;2023-03-01T03:29:38;26.73;;;24.92;;
2019;SDS011;1014;51.960;8.542;2023-03-01T03:32:06;25.98;;;24.30;;
2019;SDS011;1014;51.960;8.542;2023-03-01T03:34:33;26.00;;;24.10;;
2019;SDS011;1014;51.960;8.542;2023-03-01T03:37:00;25.67;;;23.98;;
2019;SDS011;1014;51.960;8.542;2023-03-01T03:39:28;27.10;;;25.35;;
2019;SDS011;1014;51.960;8.542;2023-03-01T03:41:59;27.38;;;25.23;;
2019;SDS011;1014;51.960;8.542;2023-03-01T03:44:26;25.98;;;24.38;;
2019;SDS011;1014;51.960;8.542;2023-03-01T03:46:53;25.58;;;23.98;;
2019;SDS011;1014;51.960;8.542;2023-03-01T03:49:20;26.42;;;24.70;;
2019;SDS011;1014;51.960;8.542;2023-03-01T03:51:47;27.38;;;25.38;;
2019;SDS011;1014;51.960;8.542;2023-03-01T03:54:14;25.67;;;23.95;;
2019;SDS011;1014;51.960;8.542;2023-03-01T03:56:43;25.02;;;23.00;;
2019;SDS011;1014;51.960;8.542;2023-03-01T03:59:10;26.45;;;24.73;;
2019;SDS011;1014;51.960;8.542;2023-03-01T04:01:37;26.05;;;24.15;;
2019;SDS011;1014;51.960;8.542;2023-03-01T04:04:04;25.83;;;24.23;;
2019;SDS011;1014;51.960;8.542;2023-03-01T04:06:32;26.08;;;24.35;;
2019;SDS011;1014;51.960;8.542;2023-03-01T04:08:59;26.05;;;24.25;;
2019;SDS011;1014;51.960;8.542;2023-03-01T04:11:27;24.88;;;23.20;;
2019;SDS011;1014;51.960;8.542;2023-03-01T04:13:57;26.20;;;24.40;;
2019;SDS011;1014;51.960;8.542;2023-03-01T04:16:25;25.77;;;24.00;;
2019;SDS011;1014;51.960;8.542;2023-03-01T04:18:52;27.25;;;25.23;;
2019;SDS011;1014;51.960;8.542;2023-03-01T04:21:19;26.20;;;24.50;;
2019;SDS011;1014;51.960;8.542;2023-03-01T04:23:46;27.98;;;25.98;;
2019;SDS011;1014;51.960;8.542;2023-03-01T04:26:17;27.27;;;25.15;;
2019;SDS011;1014;51.960;8.542;2023-03-01T04:28:45;27.33;;;25.20;;
2019;SDS011;1014;51.960;8.542;2023-03-01T04:31:16;27.10;;;25.33;;
2019;SDS011;1014;51.960;8.542;2023-03-01T04:33:46;27.48;;;25.63;;
2019;SDS011;1014;51.960;8.542;2023-03-01T04:36:14;27.65;;;25.75;;
2019;SDS011;1014;51.960;8.542;2023-03-01T04:38:42;28.00;;;25.90;;
2019;SDS011;1014;51.960;8.542;2023-03-01T04:41:12;26.80;;;25.10;;
2019;SDS011;1014;51.960;8.542;2023-03-01T04:43:39;29.45;;;27.40;;
2019;SDS011;1014;51.960;8.542;2023-03-01T04:46:07;27.58;;;25.58;;
2019;SDS011;1014;51.960;8.542;2023-03-01T04:48:36;27.13;;;25.23;;
2019;SDS011;1014;51.960;8.542;2023-03-01T04:51:04;28.23;;;26.23;;
2019;SDS011;1014;51.960;8.542;2023-03-01T04:53:31;28.08;;;26.05;;
2019;SDS011;1014;51.960;8.542;2023-03-01T04:56:01;27.60;;;25.70;;
2019;SDS011;1014;51.960;8.542;2023-03-01T04:58:28;27.42;;;25.63;;
2019;SDS011;1014;51.960;8.542;2023-03-01T05:00:55;28.15;;;25.92;;
2019;SDS011;1014;51.960;8.542;2023-03-01T05:03:22;27.60;;;25.60;;
2019;SDS011;1014;51.960;8.542;2023-03-01T05:05:51;27.35;;;25.38;;
2019;SDS011;1014;51.960;8.542;2023-03-01T05:08:18;27.02;;;25.23;;
2019;SDS011;1014;51.960;8.542;2023-03-01T05:10:47;27.27;;;25.25;;
2019;SDS011;1014;51.960;8.542;2023-03-01T05:13:15;27.15;;;25.35;;
2019;SDS011;1014;51.960;8.542;2023-03-01T05:15:46;26.35;;;24.55;;
2019;SDS011;1014;51.960;8.542;2023-03-01T05:18:13;25.75;;;23.95;;
2019;SDS011;1014;51.960;8.542;2023-03-01T05:20:40;26.55;;;24.75;;
2019;SDS011;1014;51.960;8.542;2023-03-01T05:23:09;27.25;;;25.23;;
2019;SDS011;1014;51.960;8.542;2023-03-01T05:25:44;26.38;;;24.55;;
2019;SDS011;1014;51.960;8.542;2023-03-01T05:28:11;26.85;;;24.67;;
2019;SDS011;1014;51.960;8.542;2023-03-01T05:30:39;27.20;;;25.20;;
2019;SDS011;1014;51.960;8.542;2023-03-01T05:33:06;26.20;;;24.30;;
2019;SDS011;1014;51.960;8.542;2023-03-01T05:35:38;28.10;;;26.00;;
2019;SDS011;1014;51.960;8.542;2023-03-01T05:38:05;27.30;;;25.45;;
2019;SDS011;1014;51.960;8.542;2023-03-01T05:40:33;26.25;;;24.55;;
2019;SDS011;1014;51.960;8.542;2023-03-01T05:43:00;25.80;;;24.10;;
2019;SDS011;1014;51.960;8.542;2023-03-01T05:45:30;27.48;;;25.50;;
2019;SDS011;1014;51.960;8.542;2023-03-01T05:47:58;26.63;;;24.70;;
2019;SDS011;1014;51.960;8.542;2023-03-01T05:50:26;25.70;;;23.92;;
2019;SDS011;1014;51.960;8.542;2023-03-01T05:52:56;27.20;;;25.20;;
2019;SDS011;1014;51.960;8.542;2023-03-01T05:55:24;25.67;;;23.88;;
2019;SDS011;1014;51.960;8.542;2023-03-01T05:57:52;25.48;;;23.33;;
2019;SDS011;1014;51.960;8.542;2023-03-01T06:00:20;27.25;;;25.23;;
2019;SDS011;1014;51.960;8.542;2023-03-01T06:02:48;26.80;;;23.92;;
2019;SDS011;1014;51.960;8.542;2023-03-01T06:05:15;26.50;;;24.25;;
2019;SDS011;1014;51.960;8.542;2023-03-01T06:07:42;25.95;;;24.05;;
2019;SDS011;1014;51.960;8.542;2023-03-01T06:10:09;25.25;;;23.52;;
2019;SDS011;1014;51.960;8.542;2023-03-01T06:12:37;25.42;;;23.73;;
2019;SDS011;1014;51.960;8.542;2023-03-01T06:15:07;25.55;;;23.70;;
2019;SDS011;1014;51.960;8.542;2023-03-01T06:17:35;26.63;;;24.45;;
2019;SDS011;1014;51.960;8.542;2023-03-01T06:20:02;25.33;;;23.52;;
2019;SDS011;1014;51.960;8.542;2023-03-01T06:22:30;26.42;;;24.33;;
2019;SDS011;1014;51.960;8.542;2023-03-01T06:24:57;26.40;;;24.17;;
2019;SDS011;1014;51.960;8.542;2023-03-01T06:27:24;27.60;;;25.35;;
2019;SDS011;1014;51.960;8.542;2023-03-01T06:29:51;25.63;;;23.73;;
2019;SDS011;1014;51.960;8.542;2023-03-01T06:32:19;27.05;;;24.90;;
2019;SDS011;1014;51.960;8.542;2023-03-01T06:37:32;26.67;;;24.75;;
2019;SDS011;1014;51.960;8.542;2023-03-01T06:40:00;25.23;;;23.20;;
2019;SDS011;1014;51.960;8.542;2023-03-01T06:42:32;25.90;;;24.00;;
2019;SDS011;1014;51.960;8.542;2023-03-01T06:44:59;26.10;;;24.27;;
2019;SDS011;1014;51.960;8.542;2023-03-01T06:47:27;26.50;;;24.40;;
2019;SDS011;1014;51.960;8.542;2023-03-01T06:49:54;26.23;;;24.38;;
2019;SDS011;1014;51.960;8.542;2023-03-01T06:52:21;26.48;;;24.65;;
2019;SDS011;1014;51.960;8.542;2023-03-01T06:54:48;26.45;;;24.52;;
2019;SDS011;1014;51.960;8.542;2023-03-01T06:57:15;27.30;;;25.08;;
2019;SDS011;1014;51.960;8.542;2023-03-01T06:59:42;27.83;;;25.63;;
2019;SDS011;1014;51.960;8.542;2023-03-01T07:02:09;27.55;;;25.55;;
2019;SDS011;1014;51.960;8.542;2023-03-01T07:04:38;27.15;;;25.15;;
2019;SDS011;1014;51.960;8.542;2023-03-01T07:07:05;27.05;;;24.83;;
2019;SDS011;1014;51.960;8.542;2023-03-01T07:09:32;27.65;;;25.50;;
2019;SDS011;1014;51.960;8.542;2023-03-01T07:11:59;27.55;;;25.45;;
2019;SDS011;1014;51.960;8.542;2023-03-01T07:14:27;27.42;;;25.23;;
2019;SDS011;1014;51.960;8.542;2023-03-01T07:16:54;28.95;;;26.45;;
2019;SDS011;1014;51.960;8.542;2023-03-01T07:19:21;27.30;;;25.20;;
2019;SDS011;1014;51.960;8.542;2023-03-01T07:21:49;27.92;;;25.73;;
2019;SDS011;1014;51.960;8.542;2023-03-01T07:24:17;28.92;;;26.70;;
2019;SDS011;1014;51.960;8.542;2023-03-01T07:26:44;26.90;;;24.70;;
2019;SDS011;1014;51.960;8.542;2023-03-01T07:29:10;28.38;;;25.70;;
2019;SDS011;1014;51.960;8.542;2023-03-01T07:31:37;28.00;;;25.80;;
2019;SDS011;1014;51.960;8.542;2023-03-01T07:34:04;29.40;;;27.00;;
2019;SDS011;1014;51.960;8.542;2023-03-01T07:36:32;29.70;;;27.40;;
2019;SDS011;1014;51.960;8.542;2023-03-01T07:39:00;27.30;;;25.15;;
2019;SDS011;1014;51.960;8.542;2023-03-01T07:41:28;27.55;;;25.55;;
2019;SDS011;1014;51.960;8.542;2023-03-01T07:43:55;28.45;;;26.35;;
2019;SDS011;1014;51.960;8.542;2023-03-01T07:46:22;28.27;;;26.05;;
2019;SDS011;1014;51.960;8.542;2023-03-01T07:48:49;28.92;;;26.73;;
2019;SDS011;1014;51.960;8.542;2023-03-01T07:51:16;28.75;;;26.38;;
2019;SDS011;1014;51.960;8.542;2023-03-01T07:53:45;30.10;;;27.70;;
2019;SDS011;1014;51.960;8.542;2023-03-01T07:56:13;28.98;;;26.58;;
2019;SDS011;1014;51.960;8.542;2023-03-01T07:58:42;29.27;;;27.10;;
2019;SDS011;1014;51.960;8.542;2023-03-01T08:01:10;28.48;;;26.38;;
2019;SDS011;1014;51.960;8.542;2023-03-01T08:03:37;27.08;;;25.08;;
2019;SDS011;1014;51.960;8.542;2023-03-01T08:06:05;28.42;;;26.13;;
2019;SDS011;1014;51.960;8.542;2023-03-01T08:08:33;28.83;;;26.63;;
2019;SDS011;1014;51.960;8.542;2023-03-01T08:11:01;27.80;;;25.70;;
2019;SDS011;1014;51.960;8.542;2023-03-01T08:13:30;28.23;;;26.13;;
2019;SDS011;1014;51.960;8.542;2023-03-01T08:16:00;28.75;;;26.65;;
2019;SDS011;1014;51.960;8.542;2023-03-01T08:18:27;27.75;;;25.55;;
2019;SDS011;1014;51.960;8.542;2023-03-01T08:20:55;27.52;;;25.42;;
2019;SDS011;1014;51.960;8.542;2023-03-01T08:23:22;27.92;;;25.92;;
2019;SDS011;1014;51.960;8.542;2023-03-01T08:25:50;28.85;;;26.75;;
2019;SDS011;1014;51.960;8.542;2023-03-01T08:28:18;27.45;;;25.55;;
2019;SDS011;1014;51.960;8.542;2023-03-01T08:30:46;29.85;;;27.45;;
2019;SDS011;1014;51.960;8.542;2023-03-01T08:33:13;27.27;;;25.25;;
2019;SDS011;1014;51.960;8.542;2023-03-01T08:35:40;29.08;;;26.77;;
2019;SDS011;1014;51.960;8.542;2023-03-01T08:38:07;29.17;;;26.85;;
2019;SDS011;1014;51.960;8.542;2023-03-01T08:40:34;29.35;;;26.98;;
2019;SDS011;1014;51.960;8.542;2023-03-01T08:43:01;27.85;;;25.85;;
2019;SDS011;1014;51.960;8.542;2023-03-01T08:45:28;22.65;;;21.20;;
2019;SDS011;1014;51.960;8.542;2023-03-01T08:47:57;29.88;;;27.20;;
2019;SDS011;1014;51.960;8.542;2023-03-01T08:50:24;28.38;;;26.27;;
2019;SDS011;1014;51.960;8.542;2023-03-01T08:52:51;28.60;;;26.38;;
2019;SDS011;1014;51.960;8.542;2023-03-01T08:55:18;27.42;;;25.25;;
2019;SDS011;1014;51.960;8.542;2023-03-01T08:57:45;30.52;;;27.88;;
2019;SDS011;1014;51.960;8.542;2023-03-01T09:00:12;27.45;;;25.35;;
2019;SDS011;1014;51.960;8.542;2023-03-01T09:02:40;29.95;;;27.60;;
2019;SDS011;1014;51.960;8.542;2023-03-01T09:05:09;29.52;;;26.85;;
2019;SDS011;1014;51.960;8.542;2023-03-01T09:07:36;31.08;;;28.63;;
2019;SDS011;1014;51.960;8.542;2023-03-01T09:10:03;32.17;;;29.08;;
2019;SDS011;1014;51.960;8.542;2023-03-01T09:12:30;31.15;;;28.75;;
2019;SDS011;1014;51.960;8.542;2023-03-01T09:14:57;29.67;;;27.58;;
2019;SDS011;1014;51.960;8.542;2023-03-01T09:17:24;29.73;;;27.63;;
2019;SDS011;1014;51.960;8.542;2023-03-01T09:19:51;28.05;;;25.95;;
2019;SDS011;1014;51.960;8.542;2023-03-01T09:22:20;28.65;;;26.55;;
2019;SDS011;1014;51.960;8.542;2023-03-01T09:24:46;24.98;;;23.48;;
2019;SDS011;1014;51.960;8.542;2023-03-01T09:27:13;27.48;;;25.42;;
2019;SDS011;1014;51.960;8.542;2023-03-01T09:29:43;27.70;;;25.70;;
2019;SDS011;1014;51.960;8.542;2023-03-01T09:32:10;27.67;;;25.77;;
2019;SDS011;1014;51.960;8.542;2023-03-01T09:34:37;28.75;;;26.40;;
2019;SDS011;1014;51.960;8.542;2023-03-01T09:37:19;27.98;;;25.88;;
2019;SDS011;1014;51.960;8.542;2023-03-01T09:39:46;27.13;;;25.30;;
2019;SDS011;1014;51.960;8.542;2023-03-01T09:42:13;28.33;;;26.15;;
2019;SDS011;1014;51.960;8.542;2023-03-01T09:44:42;26.52;;;24.58;;
2019;SDS011;1014;51.960;8.542;2023-03-01T09:47:12;29.20;;;27.00;;
2019;SDS011;1014;51.960;8.542;2023-03-01T09:49:41;28.65;;;26.80;;
2019;SDS011;1014;51.960;8.542;2023-03-01T09:52:16;30.15;;;27.85;;
2019;SDS011;1014;51.960;8.542;2023-03-01T09:54:55;26.67;;;24.88;;
2019;SDS011;1014;51.960;8.542;2023-03-01T09:57:26;26.55;;;24.85;;
2019;SDS011;1014;51.960;8.542;2023-03-01T10:00:02;26.58;;;24.85;;
2019;SDS011;1014;51.960;8.542;2023-03-01T10:02:31;28.95;;;26.80;;
2019;SDS011;1014;51.960;8.542;2023-03-01T10:05:05;26.98;;;25.13;;
2019;SDS011;1014;51.960;8.542;2023-03-01T10:07:37;24.75;;;23.15;;
2019;SDS011;1014;51.960;8.542;2023-03-01T10:10:10;25.08;;;23.52;;
2019;SDS011;1014;51.960;8.542;2023-03-01T10:12:41;28.13;;;26.02;;
2019;SDS011;1014;51.960;8.542;2023-03-01T10:15:10;26.45;;;24.67;;
2019;SDS011;1014;51.960;8.542;2023-03-01T10:17:42;28.65;;;26.25;;
2019;SDS011;1014;51.960;8.542;2023-03-01T10:20:15;28.15;;;25.95;;
2019;SDS011;1014;51.960;8.542;2023-03-01T10:22:43;29.45;;;27.17;;
2019;SDS011;1014;51.960;8.542;2023-03-01T10:25:17;27.63;;;25.52;;
2019;SDS011;1014;51.960;8.542;2023-03-01T10:27:47;26.55;;;24.75;;
2019;SDS011;1014;51.960;8.542;2023-03-01T10:30:16;26.38;;;24.48;;
2019;SDS011;1014;51.960;8.542;2023-03-01T10:32:44;30.13;;;27.45;;
2019;SDS011;1014;51.960;8.542;2023-03-01T10:35:17;27.50;;;25.20;;
2019;SDS011;1014;51.960;8.542;2023-03-01T10:37:57;26.20;;;24.60;;
2019;SDS011;1014;51.960;8.542;2023-03-01T10:40:26;29.50;;;27.30;;
2019;SDS011;1014;51.960;8.542;2023-03-01T10:42:53;26.27;;;24.27;;
2019;SDS011;1014;51.960;8.542;2023-03-01T10:45:30;29.48;;;27.15;;
2019;SDS011;1014;51.960;8.542;2023-03-01T10:48:11;28.35;;;26.10;;
2019;SDS011;1014;51.960;8.542;2023-03-01T10:50:39;28.85;;;26.80;;
2019;SDS011;1014;51.960;8.542;2023-03-01T10:53:16;28.63;;;26.63;;
2019;SDS011;1014;51.960;8.542;2023-03-01T10:55:47;30.77;;;28.75;;
2019;SDS011;1014;51.960;8.542;2023-03-01T10:58:22;29.27;;;26.80;;
2019;SDS011;1014;51.960;8.542;2023-03-01T11:00:50;30.20;;;28.10;;
2019;SDS011;1014;51.960;8.542;2023-03-01T11:03:19;28.98;;;27.05;;
2019;SDS011;1014;51.960;8.542;2023-03-01T11:05:55;29.13;;;27.15;;
2019;SDS011;1014;51.960;8.542;2023-03-01T11:08:29;28.95;;;27.25;;
2019;SDS011;1014;51.960;8.542;2023-03-01T11:11:05;29.00;;;27.30;;
2019;SDS011;1014;51.960;8.542;2023-03-01T11:13:32;26.58;;;24.65;;
2019;SDS011;1014;51.960;8.542;2023-03-01T11:16:00;26.50;;;24.80;;
2019;SDS011;1014;51.960;8.542;2023-03-01T11:18:29;23.00;;;21.58;;
2019;SDS011;1014;51.960;8.542;2023-03-01T11:20:56;25.48;;;23.67;;
2019;SDS011;1014;51.960;8.542;2023-03-01T11:23:25;24.02;;;22.45;;
2019;SDS011;1014;51.960;8.542;2023-03-01T11:25:54;25.42;;;23.63;;
2019;SDS011;1014;51.960;8.542;2023-03-01T11:28:22;23.33;;;21.92;;
2019;SDS011;1014;51.960;8.542;2023-03-01T11:30:51;24.00;;;22.40;;
2019;SDS011;1014;51.960;8.542;2023-03-01T11:33:22;24.23;;;22.60;;
2019;SDS011;1014;51.960;8.542;2023-03-01T11:35:53;25.00;;;23.50;;
2019;SDS011;1014;51.960;8.542;2023-03-01T11:38:22;24.00;;;22.50;;
2019;SDS011;1014;51.960;8.542;2023-03-01T11:40:50;25.45;;;23.75;;
2019;SDS011;1014;51.960;8.542;2023-03-01T11:43:20;25.48;;;23.50;;
2019;SDS011;1014;51.960;8.542;2023-03-01T11:45:54;25.42;;;23.63;;
2019;SDS011;1014;51.960;8.542;2023-03-01T11:48:35;23.92;;;22.48;;
2019;SDS011;1014;51.960;8.542;2023-03-01T11:51:05;25.92;;;24.17;;
2019;SDS011;1014;51.960;8.542;2023-03-01T11:53:39;26.13;;;24.33;;
2019;SDS011;1014;51.960;8.542;2023-03-01T11:56:16;25.27;;;23.58;;
2019;SDS011;1014;51.960;8.542;2023-03-01T11:58:54;24.98;;;23.38;;
2019;SDS011;1014;51.960;8.542;2023-03-01T12:01:30;26.15;;;24.42;;
2019;SDS011;1014;51.960;8.542;2023-03-01T12:04:03;25.63;;;23.92;;
2019;SDS011;1014;51.960;8.542;2023-03-01T12:06:37;26.08;;;24.17;;
2019;SDS011;1014;51.960;8.542;2023-03-01T12:09:13;25.95;;;23.98;;
2019;SDS011;1014;51.960;8.542;2023-03-01T12:11:46;25.48;;;23.67;;
2019;SDS011;1014;51.960;8.542;2023-03-01T12:14:22;25.13;;;23.52;;
2019;SDS011;1014;51.960;8.542;2023-03-01T12:16:58;25.10;;;23.60;;
2019;SDS011;1014;51.960;8.542;2023-03-01T12:19:33;26.05;;;24.33;;
2019;SDS011;1014;51.960;8.542;2023-03-01T12:22:16;25.77;;;23.83;;
2019;SDS011;1014;51.960;8.542;2023-03-01T12:24:48;25.33;;;23.63;;
2019;SDS011;1014;51.960;8.542;2023-03-01T12:27:27;26.17;;;24.38;;
2019;SDS011;1014;51.960;8.542;2023-03-01T12:29:59;25.05;;;23.45;;
2019;SDS011;1014;51.960;8.542;2023-03-01T12:32:36;25.23;;;23.63;;
2019;SDS011;1014;51.960;8.542;2023-03-01T12:35:11;25.67;;;23.73;;
2019;SDS011;1014;51.960;8.542;2023-03-01T12:37:47;24.40;;;23.00;;
2019;SDS011;1014;51.960;8.542;2023-03-01T12:40:22;25.50;;;23.80;;
2019;SDS011;1014;51.960;8.542;2023-03-01T12:42:54;27.05;;;24.98;;
2019;SDS011;1014;51.960;8.542;2023-03-01T12:45:30;25.35;;;23.65;;
2019;SDS011;1014;51.960;8.542;2023-03-01T12:48:04;25.88;;;24.17;;
2019;SDS011;1014;51.960;8.542;2023-03-01T12:50:37;26.23;;;24.23;;
2019;SDS011;1014;51.960;8.542;2023-03-01T12:53:07;25.60;;;23.90;;
2019;SDS011;1014;51.960;8.542;2023-03-01T12:55:41;25.55;;;23.67;;
2019;SDS011;1014;51.960;8.542;2023-03-01T12:58:12;26.85;;;24.95;;
2019;SDS011;1014;51.960;8.542;2023-03-01T13:00:49;23.70;;;22.30;;
2019;SDS011;1014;51.960;8.542;2023-03-01T13:03:22;27.27;;;25.08;;
2019;SDS011;1014;51.960;8.542;2023-03-01T13:05:56;25.77;;;24.02;;
2019;SDS011;1014;51.960;8.542;2023-03-01T13:08:27;25.10;;;23.40;;
2019;SDS011;1014;51.960;8.542;2023-03-01T13:10:58;25.85;;;24.15;;
2019;SDS011;1014;51.960;8.542;2023-03-01T13:13:27;26.45;;;24.45;;
2019;SDS011;1014;51.960;8.542;2023-03-01T13:15:54;25.63;;;23.92;;
2019;SDS011;1014;51.960;8.542;2023-03-01T13:18:30;25.48;;;23.67;;
2019;SDS011;1014;51.960;8.542;2023-03-01T13:20:58;25.95;;;24.35;;
2019;SDS011;1014;51.960;8.542;2023-03-01T13:23:27;24.88;;;23.30;;
2019;SDS011;1014;51.960;8.542;2023-03-01T13:26:02;26.95;;;25.15;;
2019;SDS011;1014;51.960;8.542;2023-03-01T13:28:40;25.48;;;24.08;;
2019;SDS011;1014;51.960;8.542;2023-03-01T13:31:08;24.92;;;23.42;;
2019;SDS011;1014;51.960;8.542;2023-03-01T13:33:43;25.08;;;23.42;;
2019;SDS011;1014;51.960;8.542;2023-03-01T13:36:11;25.60;;;24.10;;
2019;SDS011;1014;51.960;8.542;2023-03-01T13:38:44;25.50;;;23.90;;
2019;SDS011;1014;51.960;8.542;2023-03-01T13:41:11;25.60;;;23.90;;
2019;SDS011;1014;51.960;8.542;2023-03-01T13:43:40;24.15;;;22.65;;
2019;SDS011;1014;51.960;8.542;2023-03-01T13:46:11;24.90;;;23.20;;
2019;SDS011;1014;51.960;8.542;2023-03-01T13:48:39;24.17;;;22.60;;
2019;SDS011;1014;51.960;8.542;2023-03-01T13:51:08;24.10;;;22.60;;
2019;SDS011;1014;51.960;8.542;2023-03-01T13:53:38;24.38;;;22.67;;
2019;SDS011;1014;51.960;8.542;2023-03-01T13:56:07;25.10;;;23.40;;
2019;SDS011;1014;51.960;8.542;2023-03-01T13:58:43;24.33;;;22.80;;
2019;SDS011;1014;51.960;8.542;2023-03-01T14:01:18;24.55;;;23.05;;
2019;SDS011;1014;51.960;8.542;2023-03-01T14:03:46;24.00;;;22.30;;
2019;SDS011;1014;51.960;8.542;2023-03-01T14:06:16;23.80;;;22.20;;
2019;SDS011;1014;51.960;8.542;2023-03-01T14:08:43;24.48;;;22.95;;
2019;SDS011;1014;51.960;8.542;2023-03-01T14:14:01;25.33;;;23.70;;
2019;SDS011;1014;51.960;8.542;2023-03-01T14:16:33;24.20;;;22.70;;
2019;SDS011;1014;51.960;8.542;2023-03-01T14:19:07;24.80;;;23.30;;
2019;SDS011;1014;51.960;8.542;2023-03-01T14:21:39;23.35;;;21.85;;
2019;SDS011;1014;51.960;8.542;2023-03-01T14:24:13;24.77;;;23.23;;
2019;SDS011;1014;51.960;8.542;2023-03-01T14:26:41;24.60;;;23.10;;
2019;SDS011;1014;51.960;8.542;2023-03-01T14:29:23;25.08;;;23.52;;
2019;SDS011;1014;51.960;8.542;2023-03-01T14:31:50;25.05;;;23.25;;
2019;SDS011;1014;51.960;8.542;2023-03-01T14:34:18;24.45;;;22.60;;
2019;SDS011;1014;51.960;8.542;2023-03-01T14:36:47;23.30;;;21.80;;
2019;SDS011;1014;51.960;8.542;2023-03-01T14:39:17;23.33;;;21.92;;
2019;SDS011;1014;51.960;8.542;2023-03-01T14:41:44;24.85;;;23.35;;
2019;SDS011;1014;51.960;8.542;2023-03-01T14:44:12;24.92;;;23.27;;
2019;SDS011;1014;51.960;8.542;2023-03-01T14:46:41;24.50;;;22.77;;
2019;SDS011;1014;51.960;8.542;2023-03-01T14:49:10;25.70;;;23.60;;
2019;SDS011;1014;51.960;8.542;2023-03-01T14:51:38;24.55;;;23.10;;
2019;SDS011;1014;51.960;8.542;2023-03-01T14:54:17;24.93;;;23.37;;
2019;SDS011;1014;51.960;8.542;2023-03-01T14:56:46;25.23;;;23.55;;
2019;SDS011;1014;51.960;8.542;2023-03-01T14:59:13;26.30;;;24.47;;
2019;SDS011;1014;51.960;8.542;2023-03-01T15:01:41;25.02;;;23.25;;
2019;SDS011;1014;51.960;8.542;2023-03-01T15:04:12;27.05;;;24.20;;
2019;SDS011;1014;51.960;8.542;2023-03-01T15:06:40;24.50;;;22.90;;
2019;SDS011;1014;51.960;8.542;2023-03-01T15:09:11;24.85;;;23.13;;